createdAt,value
2023-01-08T11:01:47.746Z,4.20
2023-01-08T11:04:55.013Z,3.90
2023-01-08T11:08:05.860Z,4.30
2023-01-08T11:11:13.469Z,4.70
2023-01-08T11:14:26.747Z,4.90
2023-01-08T11:17:34.099Z,55.70
2023-01-08T11:20:42.095Z,48.60
2023-01-08T11:23:49.340Z,15.90
2023-01-08T11:26:59.136Z,16.50
2023-01-08T11:30:08.583Z,9.40
2023-01-08T11:33:19.925Z,31.20
2023-01-08T11:36:31.669Z,7.80
2023-01-08T11:39:39.148Z,14.00
2023-01-08T11:42:57.598Z,8.90
2023-01-08T11:46:31.512Z,10.90
2023-01-08T11:50:00.006Z,13.60
2023-01-08T11:53:18.766Z,10.50
2023-01-08T11:56:41.125Z,20.60
2023-01-08T12:00:03.244Z,5.10
2023-01-08T12:03:27.430Z,7.00
2023-01-08T12:06:42.913Z,4.80
2023-01-08T12:09:54.470Z,6.20
2023-01-08T12:13:14.779Z,6.10
2023-01-08T12:16:39.135Z,7.70
2023-01-08T12:20:00.119Z,10.00
2023-01-08T12:23:21.077Z,16.00
2023-01-08T12:26:35.758Z,25.20
2023-01-08T12:30:09.543Z,11.00
2023-01-08T12:33:34.780Z,21.40
2023-01-08T12:36:45.530Z,20.00
2023-01-08T12:40:01.190Z,12.80
2023-01-08T12:43:14.446Z,15.80
2023-01-08T12:46:21.657Z,15.20
2023-01-08T12:49:35.901Z,29.70
2023-01-08T12:52:50.691Z,84.10
2023-01-08T12:56:06.279Z,27.50
2023-01-08T12:59:26.355Z,10.40
2023-01-08T13:02:40.676Z,7.10
2023-01-08T13:05:47.076Z,12.30
2023-01-08T13:08:55.067Z,16.70
2023-01-08T13:12:02.505Z,28.70
2023-01-08T13:15:20.732Z,9.10
2023-01-08T13:18:26.900Z,6.70
2023-01-08T13:21:39.077Z,5.80
2023-01-08T13:24:45.321Z,6.40
2023-01-08T13:27:51.741Z,6.60
2023-01-08T13:31:09.356Z,7.80
2023-01-08T13:34:36.900Z,8.70
2023-01-08T13:37:43.383Z,7.90
2023-01-08T13:40:57.782Z,7.20
2023-01-08T13:44:06.603Z,21.60
2023-01-08T13:47:23.597Z,6.30
2023-01-08T13:50:30.717Z,7.50
2023-01-08T13:53:38.015Z,7.10
2023-01-08T13:56:45.997Z,7.70
2023-01-08T13:59:57.371Z,9.70
2023-01-08T14:03:03.708Z,6.30
2023-01-08T14:06:16.339Z,6.20
2023-01-08T14:09:25.289Z,7.10
2023-01-08T14:12:31.692Z,6.10
2023-01-08T14:15:39.880Z,6.80
2023-01-08T14:18:47.462Z,7.20
2023-01-08T14:21:56.360Z,7.10
2023-01-08T14:25:07.778Z,6.00
2023-01-08T14:28:20.087Z,5.20
2023-01-08T14:31:28.149Z,5.60
2023-01-08T14:34:39.180Z,6.10
2023-01-08T14:37:45.411Z,5.80
2023-01-08T14:41:01.717Z,6.30
2023-01-08T14:44:14.044Z,5.70
2023-01-08T14:47:22.008Z,6.70
2023-01-08T14:50:30.264Z,6.40
2023-01-08T14:53:39.507Z,7.70
2023-01-08T14:56:48.822Z,6.30
2023-01-08T14:59:58.117Z,6.20
2023-01-08T15:03:04.364Z,6.20
2023-01-08T15:06:12.048Z,6.30
2023-01-08T15:09:35.954Z,7.10
2023-01-08T15:12:42.119Z,7.60
2023-01-08T15:15:57.191Z,12.00
2023-01-08T15:19:08.762Z,10.20
2023-01-08T15:22:20.522Z,7.90
2023-01-08T15:25:29.445Z,24.10
2023-01-08T15:28:35.746Z,21.20
2023-01-08T15:31:50.474Z,10.20
2023-01-08T15:34:56.599Z,9.50
2023-01-08T15:38:02.818Z,7.10
2023-01-08T15:41:10.764Z,8.60
2023-01-08T15:44:16.972Z,12.10
2023-01-08T15:47:23.152Z,15.20
2023-01-08T15:50:32.425Z,23.80
2023-01-08T15:53:38.481Z,17.10
2023-01-08T15:56:44.889Z,12.40
2023-01-08T16:02:56.451Z,8.80
2023-01-08T16:06:06.601Z,5.50
2023-01-08T16:09:12.830Z,5.50
2023-01-08T16:12:18.994Z,7.10
2023-01-08T16:15:25.169Z,7.00
2023-01-08T16:18:31.439Z,9.90
2023-01-08T16:24:42.232Z,26.70
2023-01-08T16:27:48.443Z,25.30
2023-01-08T16:30:54.904Z,22.10
2023-01-08T16:34:05.372Z,20.30
2023-01-08T16:37:11.619Z,17.00
2023-01-08T16:40:19.294Z,12.20
2023-01-08T16:43:25.920Z,11.70
2023-01-08T16:46:32.134Z,13.90
2023-01-08T16:49:39.800Z,18.40
2023-01-08T16:52:47.743Z,27.70
2023-01-08T16:55:53.966Z,22.90
2023-01-08T16:59:00.119Z,16.90
2023-01-08T17:02:06.727Z,35.90
2023-01-08T17:05:13.125Z,32.60
2023-01-08T17:11:26.322Z,52.00
2023-01-08T17:17:37.809Z,36.00
2023-01-08T17:20:43.977Z,35.20
2023-01-08T17:23:50.207Z,38.60
2023-01-08T17:26:58.281Z,31.60
2023-01-08T17:30:04.755Z,31.80
2023-01-08T17:33:13.976Z,30.70
2023-01-08T17:36:22.873Z,29.60
2023-01-08T17:39:29.307Z,31.20
2023-01-08T17:45:42.110Z,22.60
2023-01-08T17:48:49.076Z,16.80
2023-01-08T17:51:57.103Z,13.80
2023-01-08T17:55:03.294Z,15.20
2023-01-08T17:58:09.813Z,12.10
2023-01-08T18:01:16.083Z,16.50
2023-01-08T18:07:26.886Z,16.50
2023-01-08T18:10:33.236Z,17.70
2023-01-08T18:13:39.690Z,15.50
2023-01-08T18:16:49.759Z,32.10
2023-01-08T18:19:56.011Z,18.00
2023-01-08T18:23:02.112Z,18.70
2023-01-08T18:26:12.223Z,18.50
2023-01-08T18:29:18.722Z,18.40
2023-01-08T18:32:26.206Z,20.60
2023-01-08T18:35:33.524Z,18.70
2023-01-08T18:38:44.183Z,23.30
2023-01-08T18:42:07.850Z,25.00
2023-01-08T18:45:15.179Z,34.60
2023-01-08T18:48:21.219Z,29.80
2023-01-08T18:51:28.686Z,23.70
2023-01-08T18:54:35.549Z,25.10
2023-01-08T18:57:41.866Z,21.70
2023-01-08T19:00:48.446Z,26.10
2023-01-08T19:03:55.744Z,31.20
2023-01-08T19:07:04.595Z,22.80
2023-01-08T19:10:16.010Z,24.20
2023-01-08T19:13:22.735Z,18.30
2023-01-08T19:16:30.149Z,18.80
2023-01-08T19:19:38.995Z,21.80
2023-01-08T19:22:45.708Z,23.10
2023-01-08T19:25:52.979Z,24.10
2023-01-08T19:28:59.549Z,25.60
2023-01-08T19:32:07.876Z,38.30
2023-01-08T19:35:22.341Z,65.10
2023-01-08T19:38:29.687Z,46.20
2023-01-08T19:41:56.864Z,26.30
2023-01-08T19:45:03.441Z,29.00
2023-01-08T19:48:10.427Z,27.60
2023-01-08T19:51:18.236Z,25.80
2023-01-08T19:54:25.993Z,37.00
2023-01-08T19:57:32.207Z,25.30
2023-01-08T20:00:39.673Z,29.00
2023-01-08T20:03:46.591Z,30.00
2023-01-08T20:06:53.583Z,34.20
2023-01-08T20:10:04.080Z,27.80
2023-01-08T20:13:10.496Z,28.70
2023-01-08T20:16:18.887Z,28.20
2023-01-08T20:19:28.940Z,24.70
2023-01-08T20:22:35.198Z,51.80
2023-01-08T20:25:42.077Z,30.90
2023-01-08T20:28:52.001Z,33.60
2023-01-08T20:31:59.499Z,38.30
2023-01-08T20:35:06.603Z,37.70
2023-01-08T20:38:12.797Z,32.00
2023-01-08T20:41:19.273Z,27.30
2023-01-08T20:44:26.040Z,33.20
2023-01-08T20:47:35.011Z,41.50
2023-01-08T20:50:44.947Z,44.30
2023-01-08T20:53:51.465Z,41.90
2023-01-08T20:56:59.529Z,40.50
2023-01-08T21:00:06.861Z,42.10
2023-01-08T21:03:13.553Z,55.10
2023-01-08T21:06:21.220Z,47.50
2023-01-08T21:09:28.480Z,49.60
2023-01-08T21:12:35.763Z,49.70
2023-01-08T21:15:41.984Z,44.60
2023-01-08T21:18:48.643Z,45.70
2023-01-08T21:21:54.873Z,52.30
2023-01-08T21:25:01.165Z,49.50
2023-01-08T21:28:08.646Z,49.80
2023-01-08T21:31:16.803Z,54.00
2023-01-08T21:34:23.036Z,73.10
2023-01-08T21:37:30.338Z,62.40
2023-01-08T21:40:36.568Z,46.90
2023-01-08T21:43:59.936Z,45.00
2023-01-08T21:47:08.440Z,47.80
2023-01-08T21:50:15.268Z,48.40
2023-01-08T21:53:36.159Z,50.10
2023-01-08T21:56:42.724Z,45.50
2023-01-08T21:59:51.831Z,46.00
2023-01-08T22:02:58.139Z,44.10
2023-01-08T22:09:09.758Z,37.30
2023-01-08T22:15:21.642Z,49.00
2023-01-08T22:18:27.923Z,49.60
2023-01-08T22:21:34.153Z,46.70
2023-01-08T22:24:41.054Z,48.10
2023-01-08T22:27:51.239Z,48.90
2023-01-08T22:30:57.863Z,48.90
2023-01-08T22:34:04.138Z,46.30
2023-01-08T22:37:10.410Z,46.70
2023-01-08T22:40:17.397Z,47.20
2023-01-08T22:43:23.657Z,47.80
2023-01-08T22:46:29.942Z,47.00
2023-01-08T22:52:41.034Z,44.50
2023-01-08T23:01:58.048Z,45.70
2023-01-08T23:05:05.019Z,46.30
2023-01-08T23:08:11.960Z,47.10
2023-01-08T23:11:20.373Z,46.90
2023-01-08T23:14:26.633Z,46.20
2023-01-08T23:17:38.906Z,45.10
2023-01-08T23:20:50.819Z,43.10
2023-01-08T23:27:01.599Z,42.80
2023-01-08T23:30:09.565Z,43.30
2023-01-08T23:33:15.803Z,42.00
2023-01-08T23:36:22.955Z,42.70
2023-01-08T23:39:29.235Z,47.40
2023-01-08T23:42:35.710Z,44.90
2023-01-08T23:45:42.178Z,44.70
2023-01-08T23:48:51.062Z,45.00
2023-01-08T23:51:57.811Z,44.60
2023-01-08T23:55:04.102Z,43.10
